createdAt,value
2023-03-19T00:02:15.692Z,-2.25
2023-03-19T00:04:39.025Z,-2.24
2023-03-19T00:07:12.499Z,-2.24
2023-03-19T00:09:48.530Z,-2.24
2023-03-19T00:12:23.429Z,-2.27
2023-03-19T00:14:57.067Z,-2.29
2023-03-19T00:17:30.282Z,-2.29
2023-03-19T00:20:03.679Z,-2.29
2023-03-19T00:22:36.923Z,-2.29
2023-03-19T00:25:11.242Z,-2.27
2023-03-19T00:27:44.981Z,-2.28
2023-03-19T00:30:19.969Z,-2.30
2023-03-19T00:32:54.992Z,-2.28
2023-03-19T00:35:28.695Z,-2.28
2023-03-19T00:38:01.860Z,-2.32
2023-03-19T00:40:37.336Z,-2.34
2023-03-19T00:43:10.632Z,-2.38
2023-03-19T00:45:44.034Z,-2.39
2023-03-19T00:48:17.184Z,-2.42
2023-03-19T00:50:50.529Z,-2.43
2023-03-19T00:53:25.453Z,-2.46
2023-03-19T00:55:58.640Z,-2.49
2023-03-19T00:58:32.111Z,-2.49
2023-03-19T01:01:07.653Z,-2.53
2023-03-19T01:03:41.686Z,-2.54
2023-03-19T01:06:15.988Z,-2.58
2023-03-19T01:08:49.245Z,-2.58
2023-03-19T01:11:23.536Z,-2.61
2023-03-19T01:14:01.817Z,-2.59
2023-03-19T01:16:35.869Z,-2.59
2023-03-19T01:19:09.308Z,-2.59
2023-03-19T01:21:44.143Z,-2.60
2023-03-19T01:24:18.891Z,-2.64
2023-03-19T01:26:53.628Z,-2.69
2023-03-19T01:29:28.576Z,-2.71
2023-03-19T01:32:03.540Z,-2.71
2023-03-19T01:34:56.399Z,-2.75
2023-03-19T01:37:29.646Z,-2.80
2023-03-19T01:40:03.964Z,-2.83
2023-03-19T01:42:38.610Z,-2.85
2023-03-19T01:45:34.847Z,-2.88
2023-03-19T01:48:31.540Z,-2.93
2023-03-19T01:51:09.065Z,-2.95
2023-03-19T01:53:59.154Z,-3.00
2023-03-19T01:56:39.010Z,-3.02
2023-03-19T01:59:21.444Z,-3.05
2023-03-19T02:02:15.491Z,-3.08
2023-03-19T02:04:52.304Z,-3.13
2023-03-19T02:07:26.727Z,-3.14
2023-03-19T02:10:01.220Z,-3.17
2023-03-19T02:12:35.028Z,-3.15
2023-03-19T02:15:10.476Z,-3.17
2023-03-19T02:17:46.007Z,-3.18
2023-03-19T02:20:27.276Z,-3.17
2023-03-19T02:23:06.743Z,-3.18
2023-03-19T02:25:45.486Z,-3.19
2023-03-19T02:28:24.544Z,-3.20
2023-03-19T02:30:58.687Z,-3.23
2023-03-19T02:33:32.093Z,-3.25
2023-03-19T02:36:09.105Z,-3.29
2023-03-19T02:38:44.771Z,-3.33
2023-03-19T02:41:21.223Z,-3.33
2023-03-19T02:43:55.505Z,-3.37
2023-03-19T02:46:29.188Z,-3.43
2023-03-19T02:49:04.144Z,-3.43
2023-03-19T02:51:37.727Z,-3.43
2023-03-19T02:54:11.341Z,-3.43
2023-03-19T02:56:52.599Z,-3.43
2023-03-19T02:59:25.826Z,-3.46
2023-03-19T03:02:01.698Z,-3.46
2023-03-19T03:04:37.869Z,-3.49
2023-03-19T03:07:12.158Z,-3.54
2023-03-19T03:09:49.070Z,-3.52
2023-03-19T03:12:23.896Z,-3.57
2023-03-19T03:14:57.184Z,-3.59
2023-03-19T03:17:30.595Z,-3.63
2023-03-19T03:20:03.683Z,-3.66
2023-03-19T03:22:38.459Z,-3.70
2023-03-19T03:25:14.342Z,-3.72
2023-03-19T03:27:51.063Z,-3.78
2023-03-19T03:30:25.399Z,-3.84
2023-03-19T03:32:58.732Z,-3.84
2023-03-19T03:35:34.287Z,-3.88
2023-03-19T03:38:07.651Z,-3.92
2023-03-19T03:40:42.004Z,-3.94
2023-03-19T03:43:18.562Z,-3.94
2023-03-19T03:45:51.829Z,-3.96
2023-03-19T03:48:26.151Z,-3.99
2023-03-19T03:50:59.312Z,-4.00
2023-03-19T03:53:33.428Z,-4.03
2023-03-19T03:56:09.662Z,-4.06
2023-03-19T03:58:43.170Z,-4.05
2023-03-19T04:01:21.550Z,-4.08
2023-03-19T04:03:55.966Z,-4.08
2023-03-19T04:06:30.295Z,-4.12
2023-03-19T04:09:07.752Z,-4.16
2023-03-19T04:11:42.639Z,-4.15
2023-03-19T04:14:16.068Z,-4.11
2023-03-19T04:16:53.999Z,-4.11
2023-03-19T04:19:27.382Z,-4.11
2023-03-19T04:22:00.589Z,-4.07
2023-03-19T04:24:34.425Z,-4.03
2023-03-19T04:27:11.084Z,-4.00
2023-03-19T04:29:47.198Z,-3.97
2023-03-19T04:32:22.167Z,-3.95
2023-03-19T04:34:55.341Z,-3.94
2023-03-19T04:37:32.092Z,-3.90
2023-03-19T04:40:07.857Z,-3.88
2023-03-19T04:42:44.756Z,-3.86
2023-03-19T04:45:22.704Z,-3.83
2023-03-19T04:47:57.119Z,-3.78
2023-03-19T04:50:31.713Z,-3.74
2023-03-19T04:53:06.848Z,-3.70
2023-03-19T04:55:41.203Z,-3.67
2023-03-19T04:58:19.690Z,-3.64
2023-03-19T05:00:54.562Z,-3.60
2023-03-19T05:03:31.636Z,-3.56
2023-03-19T05:06:05.862Z,-3.55
2023-03-19T05:08:39.008Z,-3.41
2023-03-19T05:11:12.315Z,-3.38
2023-03-19T05:13:51.425Z,-3.32
2023-03-19T05:16:24.540Z,-3.27
2023-03-19T05:18:59.661Z,-3.22
2023-03-19T05:21:34.244Z,-3.14
2023-03-19T05:24:07.945Z,-3.10
2023-03-19T05:26:42.013Z,-3.08
2023-03-19T05:29:23.419Z,-3.00
2023-03-19T05:32:03.395Z,-2.92
2023-03-19T05:34:36.861Z,-2.87
2023-03-19T05:37:10.236Z,-2.80
2023-03-19T05:39:43.579Z,-2.88
2023-03-19T05:42:20.300Z,-2.63
2023-03-19T05:44:53.743Z,-2.52
2023-03-19T05:47:28.480Z,-2.44
2023-03-19T05:50:02.390Z,-2.37
2023-03-19T05:52:35.898Z,-2.29
2023-03-19T05:55:11.232Z,-2.22
2023-03-19T05:57:50.445Z,-2.11
2023-03-19T06:00:25.951Z,-2.04
2023-03-19T06:02:59.470Z,-2.01
2023-03-19T06:05:37.524Z,-2.00
2023-03-19T06:08:23.509Z,-1.97
2023-03-19T06:11:01.117Z,-1.92
2023-03-19T06:13:34.661Z,-1.84
2023-03-19T06:16:12.510Z,-1.80
2023-03-19T06:18:53.922Z,-1.67
2023-03-19T06:21:30.503Z,-1.33
2023-03-19T06:24:05.956Z,-0.64
2023-03-19T06:26:41.119Z,0.59
2023-03-19T06:29:20.041Z,1.97
2023-03-19T06:31:56.842Z,3.71
2023-03-19T06:34:31.836Z,5.09
2023-03-19T06:37:05.667Z,6.50
2023-03-19T06:39:42.652Z,7.66
2023-03-19T06:42:19.947Z,8.78
2023-03-19T06:44:53.890Z,9.93
2023-03-19T06:47:27.473Z,11.07
2023-03-19T06:50:01.357Z,11.90
2023-03-19T06:52:33.725Z,12.91
2023-03-19T06:55:08.196Z,13.30
2023-03-19T06:57:41.708Z,13.44
2023-03-19T07:00:20.864Z,13.47
2023-03-19T07:02:54.279Z,13.81
2023-03-19T07:05:35.624Z,14.68
2023-03-19T07:08:12.173Z,15.67
2023-03-19T07:11:00.977Z,16.52
2023-03-19T07:13:37.840Z,17.51
2023-03-19T07:16:11.756Z,18.32
2023-03-19T07:18:48.121Z,19.30
2023-03-19T07:21:23.208Z,19.23
2023-03-19T07:26:57.894Z,18.77
2023-03-19T07:29:31.286Z,18.68
2023-03-19T07:32:04.933Z,17.86
2023-03-19T07:34:38.169Z,17.46
2023-03-19T07:37:11.875Z,17.32
2023-03-19T07:39:45.122Z,17.75
2023-03-19T07:42:22.148Z,18.12
2023-03-19T07:44:55.366Z,18.62
2023-03-19T07:47:29.709Z,19.36
2023-03-19T07:50:04.131Z,19.62
2023-03-19T07:52:37.426Z,18.49
2023-03-19T07:55:12.974Z,18.38
2023-03-19T07:57:49.083Z,19.27
2023-03-19T08:00:23.586Z,20.36
2023-03-19T08:02:59.393Z,21.11
2023-03-19T08:05:32.536Z,21.05
2023-03-19T08:08:06.621Z,20.86
2023-03-19T08:10:40.531Z,20.99
2023-03-19T08:13:15.181Z,21.23
2023-03-19T08:15:53.573Z,21.00
2023-03-19T08:18:27.561Z,21.38
2023-03-19T08:21:00.842Z,21.71
2023-03-19T08:23:36.472Z,21.93
2023-03-19T08:26:09.641Z,22.66
2023-03-19T08:28:47.503Z,22.30
2023-03-19T08:31:20.704Z,21.79
2023-03-19T08:33:54.093Z,21.62
2023-03-19T08:36:30.546Z,22.15
2023-03-19T08:39:04.465Z,22.08
2023-03-19T08:41:39.390Z,21.50
2023-03-19T08:44:14.482Z,21.50
2023-03-19T08:46:51.428Z,20.56
2023-03-19T08:49:24.588Z,20.12
2023-03-19T08:51:57.898Z,20.68
2023-03-19T08:54:33.981Z,21.05
2023-03-19T08:57:10.108Z,21.16
2023-03-19T08:59:43.206Z,20.98
2023-03-19T09:02:20.003Z,21.65
2023-03-19T09:04:53.479Z,22.07
2023-03-19T09:07:26.775Z,22.54
2023-03-19T09:10:00.029Z,23.45
2023-03-19T09:12:34.390Z,24.19
2023-03-19T09:15:10.209Z,23.91
2023-03-19T09:17:48.191Z,24.02
2023-03-19T09:20:21.893Z,24.84
2023-03-19T09:22:55.138Z,25.06
2023-03-19T09:25:28.326Z,23.94
2023-03-19T09:28:01.679Z,24.51
2023-03-19T09:30:35.026Z,25.36
2023-03-19T09:33:09.133Z,26.56
2023-03-19T09:35:42.988Z,26.33
2023-03-19T09:38:19.334Z,26.64
2023-03-19T09:40:56.954Z,26.98
2023-03-19T09:43:42.309Z,27.15
2023-03-19T09:46:22.874Z,27.41
2023-03-19T09:49:00.107Z,27.73
2023-03-19T09:51:36.783Z,27.99
2023-03-19T09:54:20.243Z,27.95
2023-03-19T09:56:54.581Z,27.42
2023-03-19T09:59:30.876Z,26.19
2023-03-19T10:02:28.196Z,26.07
2023-03-19T10:05:10.144Z,26.76
2023-03-19T10:08:11.832Z,26.17
2023-03-19T10:10:56.216Z,24.64
2023-03-19T10:13:48.722Z,24.32
2023-03-19T10:16:25.633Z,25.61
2023-03-19T10:19:02.073Z,26.97
2023-03-19T10:21:39.903Z,26.08
2023-03-19T10:24:18.453Z,25.24
2023-03-19T10:27:18.728Z,24.54
2023-03-19T10:30:00.762Z,24.36
2023-03-19T10:32:40.338Z,23.91
2023-03-19T10:35:22.574Z,23.99
2023-03-19T10:37:55.940Z,23.06
2023-03-19T10:40:32.361Z,23.10
2023-03-19T10:43:12.737Z,23.87
2023-03-19T10:45:50.503Z,23.72
2023-03-19T10:48:28.324Z,23.72
2023-03-19T10:51:04.606Z,24.04
2023-03-19T10:53:39.090Z,22.37
2023-03-19T10:56:23.352Z,20.77
2023-03-19T10:59:02.645Z,21.00
2023-03-19T11:01:39.529Z,21.34
2023-03-19T11:04:20.441Z,21.41
2023-03-19T11:06:55.515Z,22.15
2023-03-19T11:09:34.628Z,23.12
2023-03-19T11:12:20.601Z,23.63
2023-03-19T11:14:55.161Z,24.06
2023-03-19T11:17:31.807Z,24.70
2023-03-19T11:20:19.872Z,25.43
2023-03-19T11:22:56.478Z,24.31
2023-03-19T11:25:32.490Z,24.72
2023-03-19T11:28:09.930Z,25.76
2023-03-19T11:30:47.482Z,26.85
2023-03-19T11:33:55.289Z,26.63
2023-03-19T11:36:35.106Z,25.26
2023-03-19T11:39:21.414Z,23.26
2023-03-19T11:42:07.908Z,23.43
2023-03-19T11:44:50.584Z,23.81
2023-03-19T11:47:28.319Z,24.27
2023-03-19T11:50:25.680Z,24.59
2023-03-19T11:53:16.992Z,25.20
2023-03-19T11:55:54.627Z,24.18
2023-03-19T11:58:49.196Z,23.62
2023-03-19T12:01:31.567Z,22.88
2023-03-19T12:04:29.985Z,22.11
2023-03-19T12:09:44.709Z,22.11
2023-03-19T12:12:26.830Z,22.41
2023-03-19T12:15:17.997Z,21.08
2023-03-19T12:18:00.050Z,20.68
2023-03-19T12:20:43.042Z,20.47
2023-03-19T12:23:22.542Z,20.27
2023-03-19T12:26:06.259Z,21.23
2023-03-19T12:28:42.938Z,21.80
2023-03-19T12:31:32.337Z,22.31
2023-03-19T12:34:15.128Z,22.11
2023-03-19T12:36:52.111Z,21.55
2023-03-19T12:39:29.245Z,21.34
2023-03-19T12:42:04.353Z,20.23
2023-03-19T12:44:40.352Z,19.58
2023-03-19T12:47:16.901Z,18.87
2023-03-19T12:49:53.091Z,20.06
2023-03-19T12:52:29.211Z,21.89
2023-03-19T12:55:06.062Z,21.92
2023-03-19T12:57:54.561Z,21.42
2023-03-19T13:00:32.558Z,21.43
2023-03-19T13:03:09.533Z,21.19
2023-03-19T13:05:45.921Z,19.42
2023-03-19T13:08:23.725Z,17.89
2023-03-19T13:10:59.686Z,17.03
2023-03-19T13:13:40.019Z,17.94
2023-03-19T13:16:21.141Z,19.05
2023-03-19T13:18:58.269Z,18.59
2023-03-19T13:21:34.327Z,18.89
2023-03-19T13:24:21.968Z,18.73
2023-03-19T13:26:53.110Z,18.19
2023-03-19T13:29:27.989Z,17.98
2023-03-19T13:32:06.815Z,18.69
2023-03-19T13:34:41.677Z,19.60
2023-03-19T13:37:21.350Z,20.51
2023-03-19T13:39:54.618Z,20.85
2023-03-19T13:42:43.281Z,21.27
2023-03-19T13:45:44.097Z,20.49
2023-03-19T13:48:43.405Z,19.61
2023-03-19T13:54:50.873Z,19.27
2023-03-19T14:01:01.455Z,17.69
2023-03-19T14:06:46.424Z,18.63
2023-03-19T14:12:42.112Z,18.96
2023-03-19T14:15:23.060Z,18.33
2023-03-19T14:18:07.171Z,17.32
2023-03-19T14:20:51.935Z,17.25
2023-03-19T14:23:39.438Z,17.02
2023-03-19T14:26:13.257Z,16.82
2023-03-19T14:28:58.374Z,16.62
2023-03-19T14:31:46.530Z,16.29
2023-03-19T14:34:32.806Z,15.73
2023-03-19T14:37:10.202Z,15.10
2023-03-19T14:39:53.096Z,14.51
2023-03-19T14:42:30.828Z,14.17
2023-03-19T14:45:43.130Z,13.79
2023-03-19T14:48:29.528Z,13.52
2023-03-19T14:51:23.187Z,13.31
2023-03-19T14:54:06.014Z,12.79
2023-03-19T14:56:42.044Z,11.98
2023-03-19T14:59:19.561Z,11.49
2023-03-19T15:01:59.730Z,11.49
2023-03-19T15:04:42.199Z,11.37
2023-03-19T15:07:20.693Z,10.88
2023-03-19T15:10:03.686Z,10.53
2023-03-19T15:12:58.288Z,10.38
2023-03-19T15:16:02.701Z,10.26
2023-03-19T15:18:39.193Z,9.89
2023-03-19T15:21:20.804Z,9.33
2023-03-19T15:23:58.890Z,8.98
2023-03-19T15:26:36.381Z,8.64
2023-03-19T15:29:12.532Z,8.31
2023-03-19T15:31:52.800Z,8.06
2023-03-19T15:34:26.755Z,7.71
2023-03-19T15:37:06.162Z,7.15
2023-03-19T15:39:43.900Z,6.58
2023-03-19T15:42:20.532Z,6.18
2023-03-19T15:44:59.589Z,5.87
2023-03-19T15:47:37.217Z,5.61
2023-03-19T15:50:19.079Z,5.47
2023-03-19T15:52:55.402Z,5.40
2023-03-19T15:55:29.487Z,5.28
2023-03-19T15:58:07.042Z,5.12
2023-03-19T16:00:49.350Z,5.00
2023-03-19T16:03:26.695Z,4.98
2023-03-19T16:06:06.012Z,4.85
2023-03-19T16:08:40.743Z,4.66
2023-03-19T16:11:31.375Z,4.54
2023-03-19T16:14:09.397Z,4.59
2023-03-19T16:16:45.615Z,4.63
2023-03-19T16:19:37.738Z,4.62
2023-03-19T16:22:17.369Z,4.65
2023-03-19T16:24:57.518Z,4.69
2023-03-19T16:27:38.931Z,4.70
2023-03-19T16:30:23.796Z,4.52
2023-03-19T16:33:02.725Z,4.41
2023-03-19T16:35:39.346Z,4.37
2023-03-19T16:38:23.081Z,4.37
2023-03-19T16:41:21.310Z,4.40
2023-03-19T16:44:05.874Z,4.43
2023-03-19T16:46:42.825Z,4.32
2023-03-19T16:49:16.262Z,4.10
2023-03-19T16:51:52.651Z,4.06
2023-03-19T16:54:26.455Z,3.95
2023-03-19T16:57:07.168Z,3.83
2023-03-19T16:59:46.542Z,3.80
2023-03-19T17:05:38.174Z,3.60
2023-03-19T17:08:21.623Z,3.50
2023-03-19T17:11:03.571Z,3.38
2023-03-19T17:13:48.813Z,3.32
2023-03-19T17:16:22.367Z,3.29
2023-03-19T17:19:12.110Z,3.20
2023-03-19T17:21:46.919Z,3.11
2023-03-19T17:24:25.963Z,3.09
2023-03-19T17:27:02.562Z,3.08
2023-03-19T17:29:36.280Z,3.06
2023-03-19T17:32:14.402Z,3.00
2023-03-19T17:34:50.205Z,2.95
2023-03-19T17:37:29.015Z,2.86
2023-03-19T17:40:16.542Z,2.87
2023-03-19T17:42:52.277Z,2.81
2023-03-19T17:45:34.593Z,2.77
2023-03-19T17:48:13.908Z,2.83
2023-03-19T17:50:51.457Z,2.77
2023-03-19T17:53:31.695Z,2.75
2023-03-19T17:56:08.027Z,2.68
2023-03-19T17:58:43.274Z,2.67
2023-03-19T18:01:19.246Z,2.62
2023-03-19T18:03:54.092Z,2.59
2023-03-19T18:06:32.566Z,2.52
2023-03-19T18:09:08.582Z,2.44
2023-03-19T18:12:05.669Z,2.54
2023-03-19T18:14:41.657Z,2.55
2023-03-19T18:17:18.354Z,2.60
2023-03-19T18:19:54.521Z,2.62
2023-03-19T18:22:29.167Z,2.64
2023-03-19T18:25:02.468Z,2.61
2023-03-19T18:27:43.754Z,2.60
2023-03-19T18:30:20.660Z,2.57
2023-03-19T18:32:57.264Z,2.58
2023-03-19T18:35:34.208Z,2.65
2023-03-19T18:38:19.134Z,2.64
2023-03-19T18:40:58.305Z,2.60
2023-03-19T18:43:35.547Z,2.53
2023-03-19T18:46:12.390Z,2.46
2023-03-19T18:48:51.117Z,2.39
2023-03-19T18:51:24.561Z,2.34
2023-03-19T18:53:58.119Z,2.30
2023-03-19T18:56:33.699Z,2.25
2023-03-19T18:59:10.038Z,2.19
2023-03-19T19:01:55.151Z,2.12
2023-03-19T19:04:32.121Z,2.07
2023-03-19T19:07:05.785Z,2.03
2023-03-19T19:09:40.582Z,2.03
2023-03-19T19:12:19.037Z,2.05
2023-03-19T19:14:53.914Z,2.09
2023-03-19T19:17:33.342Z,2.06
2023-03-19T19:20:10.400Z,2.03
2023-03-19T19:22:48.823Z,2.04
2023-03-19T19:25:27.507Z,2.04
2023-03-19T19:28:22.300Z,1.98
2023-03-19T19:34:03.209Z,1.88
2023-03-19T19:36:48.460Z,1.87
2023-03-19T19:42:25.289Z,1.78
2023-03-19T19:45:01.642Z,1.74
2023-03-19T19:47:36.121Z,1.65
2023-03-19T19:50:17.649Z,1.60
2023-03-19T19:52:50.954Z,1.56
2023-03-19T19:55:29.250Z,1.49
2023-03-19T19:58:02.942Z,1.43
2023-03-19T20:00:42.221Z,1.43
2023-03-19T20:03:20.012Z,1.40
2023-03-19T20:05:54.625Z,1.37
2023-03-19T20:08:28.981Z,1.32
2023-03-19T20:11:17.394Z,1.30
2023-03-19T20:13:53.883Z,1.30
2023-03-19T20:16:29.344Z,1.29
2023-03-19T20:19:08.064Z,1.24
2023-03-19T20:21:44.692Z,1.22
2023-03-19T20:24:18.538Z,1.22
2023-03-19T20:26:51.781Z,1.18
2023-03-19T20:29:24.811Z,1.11
2023-03-19T20:31:58.348Z,1.06
2023-03-19T20:34:39.005Z,1.02
2023-03-19T20:37:07.424Z,0.97
2023-03-19T20:39:40.431Z,0.95
2023-03-19T20:42:16.059Z,0.93
2023-03-19T20:44:52.218Z,0.90
2023-03-19T20:47:26.533Z,0.89
2023-03-19T20:50:02.908Z,0.89
2023-03-19T20:52:36.158Z,0.88
2023-03-19T20:55:13.264Z,0.79
2023-03-19T20:57:48.487Z,0.81
2023-03-19T21:00:28.607Z,0.79
2023-03-19T21:03:03.197Z,0.80
2023-03-19T21:05:41.097Z,0.79
2023-03-19T21:08:23.515Z,0.77
2023-03-19T21:10:58.237Z,0.73
2023-03-19T21:13:33.521Z,0.69
2023-03-19T21:16:07.933Z,0.64
2023-03-19T21:18:42.233Z,0.63
2023-03-19T21:21:16.033Z,0.64
2023-03-19T21:23:53.614Z,0.63
2023-03-19T21:26:27.465Z,0.59
2023-03-19T21:29:05.807Z,0.55
2023-03-19T21:31:38.874Z,0.55
2023-03-19T21:50:02.556Z,0.53
2023-03-19T21:52:56.350Z,0.40
2023-03-19T21:55:18.446Z,0.37
2023-03-19T21:57:53.088Z,0.39
2023-03-19T22:00:26.922Z,0.38
2023-03-19T22:02:59.978Z,0.37
2023-03-19T22:05:36.595Z,0.37
2023-03-19T22:08:09.968Z,0.35
2023-03-19T22:10:44.756Z,0.32
2023-03-19T22:13:22.535Z,0.31
2023-03-19T22:15:55.745Z,0.32
2023-03-19T22:18:30.097Z,0.33
2023-03-19T22:21:03.183Z,0.30
2023-03-19T22:23:36.078Z,0.30
2023-03-19T22:26:19.499Z,0.28
2023-03-19T22:28:52.865Z,0.26
2023-03-19T22:31:26.568Z,0.23
2023-03-19T22:34:03.185Z,0.20
2023-03-19T22:36:36.143Z,0.20
2023-03-19T22:39:09.354Z,0.20
2023-03-19T22:41:46.117Z,0.21
2023-03-19T22:44:22.598Z,0.22
2023-03-19T22:46:57.868Z,0.21
2023-03-19T22:49:32.103Z,0.19
2023-03-19T22:52:05.977Z,0.20
2023-03-19T22:54:38.958Z,0.19
2023-03-19T22:57:15.839Z,0.18
2023-03-19T22:59:51.315Z,0.18
2023-03-19T23:02:24.318Z,0.16
2023-03-19T23:04:58.670Z,0.15
2023-03-19T23:07:31.661Z,0.13
2023-03-19T23:10:10.457Z,0.10
2023-03-19T23:12:43.552Z,0.09
2023-03-19T23:15:16.933Z,0.07
2023-03-19T23:17:50.696Z,0.05
2023-03-19T23:20:26.143Z,0.05
2023-03-19T23:22:59.418Z,0.05
2023-03-19T23:25:32.511Z,0.06
2023-03-19T23:28:06.145Z,0.03
2023-03-19T23:30:41.269Z,0.02
2023-03-19T23:33:14.926Z,-0.01
2023-03-19T23:35:48.935Z,-0.01
2023-03-19T23:38:21.844Z,-0.01
2023-03-19T23:40:54.970Z,-0.04
2023-03-19T23:43:29.927Z,-0.03
2023-03-19T23:46:03.526Z,-0.03
2023-03-19T23:48:42.451Z,-0.04
2023-03-19T23:51:17.145Z,-0.07
2023-03-19T23:53:51.363Z,-0.10
2023-03-19T23:56:26.694Z,-0.14
2023-03-19T23:59:00.373Z,-0.17
